Time;durP1;ratioP1;P1;durP2;ratioP2;P2;SDS_P1;SDS_P2;PMS_P1;PMS_P2;Temp;Humidity;BMP_temperature;BMP_pressure;BME280_temperature;BME280_humidity;BME280_pressure;Samples;Min_cycle;Max_cycle;Signal;HPM_P1;HPM_P2
2022/07/20 00:01:33;;;;;;;4.40;4.05;;;17.00;99.90;;;;;;5010628;28;20160;-67
2022/07/20 00:04:00;;;;;;;4.57;3.85;;;17.00;99.90;;;;;;5010582;28;20049;-68
2022/07/20 00:06:26;;;;;;;3.30;3.03;;;16.90;99.90;;;;;;5005180;28;20334;-67
2022/07/20 00:11:41;;;;;;;6.53;5.20;;;16.90;99.90;;;;;;5001392;28;20054;-67
2022/07/20 00:14:08;;;;;;;4.55;4.18;;;16.90;99.90;;;;;;5006553;28;20046;-68
2022/07/20 00:16:35;;;;;;;4.03;3.72;;;16.90;99.90;;;;;;5005817;28;20053;-67
2022/07/20 00:19:03;;;;;;;8.13;4.50;;;16.90;99.90;;;;;;5009193;28;20045;-68
2022/07/20 00:21:31;;;;;;;5.00;4.15;;;16.90;99.90;;;;;;5006910;28;20034;-67
2022/07/20 00:23:57;;;;;;;9.57;5.68;;;16.90;99.90;;;;;;5012389;28;20058;-67
2022/07/20 00:26:25;;;;;;;5.50;4.97;;;16.90;99.90;;;;;;5010904;28;20057;-67
2022/07/20 00:28:52;;;;;;;4.32;3.92;;;16.80;99.90;;;;;;5012111;28;20128;-69
2022/07/20 00:31:21;;;;;;;6.78;5.10;;;16.80;99.90;;;;;;5011373;28;20088;-71
2022/07/20 00:33:48;;;;;;;5.53;4.85;;;16.80;99.90;;;;;;5011174;28;20046;-68
2022/07/20 00:36:17;;;;;;;5.63;5.00;;;16.80;99.90;;;;;;5006742;28;20100;-67
2022/07/20 00:38:45;;;;;;;4.75;4.35;;;16.80;99.90;;;;;;4994954;28;20418;-72
2022/07/20 00:41:13;;;;;;;6.00;5.50;;;16.80;99.90;;;;;;5011441;28;20398;-69
2022/07/20 00:44:06;;;;;;;6.90;6.03;;;16.80;99.90;;;;;;5008522;28;20068;-67
2022/07/20 00:46:36;;;;;;;7.40;5.18;;;16.80;99.90;;;;;;5010420;28;20491;-68
2022/07/20 00:49:05;;;;;;;5.03;4.63;;;16.80;99.90;;;;;;5011015;28;20065;-67
2022/07/20 00:51:33;;;;;;;7.00;5.25;;;16.80;99.90;;;;;;5010692;28;20046;-67
2022/07/20 00:54:01;;;;;;;4.38;3.97;;;16.70;99.90;;;;;;5010729;28;20076;-67
2022/07/20 00:56:28;;;;;;;5.95;5.38;;;16.70;99.90;;;;;;4998996;28;20604;-68
2022/07/20 00:58:55;;;;;;;7.28;6.22;;;16.70;99.90;;;;;;5011298;28;20092;-68
2022/07/20 01:01:22;;;;;;;7.85;6.78;;;16.70;99.90;;;;;;5006343;28;20046;-68
2022/07/20 01:03:49;;;;;;;8.35;6.80;;;16.80;99.90;;;;;;5010831;28;20478;-68
2022/07/20 01:06:16;;;;;;;6.93;5.72;;;16.70;99.90;;;;;;5010686;28;20072;-67
2022/07/20 01:08:43;;;;;;;7.30;6.18;;;16.80;99.90;;;;;;5011816;28;20037;-67
2022/07/20 01:11:10;;;;;;;7.63;6.93;;;16.70;99.90;;;;;;5004487;28;20092;-67
2022/07/20 01:13:37;;;;;;;6.20;5.63;;;16.70;99.90;;;;;;5003422;28;20389;-68
2022/07/20 01:16:04;;;;;;;6.53;5.93;;;16.70;99.90;;;;;;5024246;28;20038;-67
2022/07/20 01:18:31;;;;;;;7.20;6.50;;;16.80;99.90;;;;;;5008835;28;20110;-67
2022/07/20 01:21:06;;;;;;;8.13;7.35;;;16.70;99.90;;;;;;4999776;28;20069;-67
2022/07/20 01:23:33;;;;;;;7.28;6.68;;;16.70;99.90;;;;;;5009890;28;20088;-67
2022/07/20 01:26:00;;;;;;;6.10;5.50;;;16.70;99.90;;;;;;5006235;28;20373;-67
2022/07/20 01:28:28;;;;;;;7.20;6.50;;;16.70;99.90;;;;;;5010788;28;20042;-67
2022/07/20 01:30:55;;;;;;;7.15;6.50;;;16.70;99.90;;;;;;5005639;28;20998;-68
2022/07/20 01:33:22;;;;;;;8.48;6.53;;;16.60;99.90;;;;;;5010451;28;20116;-67
2022/07/20 01:35:49;;;;;;;5.63;5.13;;;16.60;99.90;;;;;;5007852;28;20088;-67
2022/07/20 01:38:16;;;;;;;6.85;6.22;;;16.70;99.90;;;;;;5010455;28;20041;-67
2022/07/20 01:40:43;;;;;;;6.38;5.45;;;16.60;99.90;;;;;;5011133;28;20041;-67
2022/07/20 01:43:10;;;;;;;5.78;5.28;;;16.60;99.90;;;;;;5010912;28;20043;-67
2022/07/20 01:45:37;;;;;;;6.13;5.57;;;16.60;99.90;;;;;;5011012;28;20440;-69
2022/07/20 01:48:05;;;;;;;7.22;5.80;;;16.60;99.90;;;;;;5007986;28;21226;-68
2022/07/20 01:50:32;;;;;;;6.93;5.93;;;16.60;99.90;;;;;;5011097;28;20096;-67
2022/07/20 01:52:59;;;;;;;7.05;6.45;;;16.60;99.90;;;;;;5007865;28;20095;-67
2022/07/20 01:55:26;;;;;;;6.38;5.85;;;16.60;99.90;;;;;;5010515;28;20802;-67
2022/07/20 01:57:53;;;;;;;6.32;5.53;;;16.60;99.90;;;;;;5003739;28;20030;-67
2022/07/20 02:00:21;;;;;;;8.00;6.82;;;16.50;99.90;;;;;;5004176;28;20037;-68
2022/07/20 02:02:48;;;;;;;7.22;6.20;;;16.50;99.90;;;;;;5005133;28;20104;-69
2022/07/20 02:05:16;;;;;;;6.97;5.95;;;16.50;99.90;;;;;;5004324;28;20034;-67
2022/07/20 02:07:44;;;;;;;7.03;6.32;;;16.50;99.90;;;;;;5003168;28;20803;-73
2022/07/20 02:10:13;;;;;;;8.00;6.60;;;16.50;99.90;;;;;;5010900;28;20077;-68
2022/07/20 02:12:40;;;;;;;6.05;5.55;;;16.50;99.90;;;;;;5011444;28;20034;-67
2022/07/20 02:15:09;;;;;;;6.28;5.68;;;16.50;99.90;;;;;;4999227;28;20085;-67
2022/07/20 02:17:36;;;;;;;7.03;6.32;;;16.50;99.90;;;;;;5008954;28;20732;-67
2022/07/20 02:20:04;;;;;;;8.95;6.90;;;16.50;99.90;;;;;;5010861;28;20034;-67
2022/07/20 02:22:31;;;;;;;7.72;7.03;;;16.50;99.90;;;;;;5009261;28;20050;-67
2022/07/20 02:24:58;;;;;;;7.20;6.57;;;16.50;99.90;;;;;;5008946;28;20038;-67
2022/07/20 02:27:25;;;;;;;9.82;6.80;;;16.50;99.90;;;;;;5010829;28;20054;-67
2022/07/20 02:29:52;;;;;;;7.47;6.43;;;16.60;99.90;;;;;;5010178;28;20042;-67
2022/07/20 02:32:19;;;;;;;8.65;6.68;;;16.50;99.90;;;;;;5009899;28;20049;-69
2022/07/20 02:34:46;;;;;;;6.38;5.78;;;16.60;99.90;;;;;;5009700;28;20152;-67
2022/07/20 02:37:13;;;;;;;6.38;5.68;;;16.50;99.90;;;;;;5007812;28;20107;-67
2022/07/20 02:39:39;;;;;;;8.60;7.38;;;16.50;99.90;;;;;;5011573;28;20050;-67
2022/07/20 02:42:06;;;;;;;7.18;6.57;;;16.60;99.90;;;;;;5012399;28;20046;-67
2022/07/20 02:44:33;;;;;;;6.28;5.70;;;16.60;99.90;;;;;;5003361;28;20050;-67
2022/07/20 02:47:00;;;;;;;8.30;7.50;;;16.60;99.90;;;;;;5012875;28;20061;-67
2022/07/20 02:49:27;;;;;;;7.50;6.72;;;16.60;99.90;;;;;;5008815;28;20454;-69
2022/07/20 02:51:54;;;;;;;7.15;6.05;;;16.60;99.90;;;;;;5013237;28;20120;-68
2022/07/20 02:54:23;;;;;;;8.20;7.30;;;16.60;99.90;;;;;;5011515;28;20427;-67
2022/07/20 02:56:50;;;;;;;8.50;7.70;;;16.60;99.90;;;;;;5013152;28;20037;-69
2022/07/20 02:59:17;;;;;;;9.20;7.20;;;16.60;99.90;;;;;;5008130;28;20498;-67
2022/07/20 03:01:44;;;;;;;6.25;5.75;;;16.60;99.90;;;;;;5005873;28;20144;-67
2022/07/20 03:04:11;;;;;;;7.40;6.07;;;16.60;99.90;;;;;;5013181;28;20052;-67
2022/07/20 03:06:38;;;;;;;7.32;6.72;;;16.60;99.90;;;;;;5003990;28;20124;-67
2022/07/20 03:09:05;;;;;;;7.93;7.13;;;16.70;99.90;;;;;;5012695;28;20038;-67
2022/07/20 03:11:32;;;;;;;6.63;5.95;;;16.70;99.90;;;;;;5014102;28;20161;-70
2022/07/20 03:13:59;;;;;;;7.80;6.95;;;16.80;99.90;;;;;;5007142;28;20384;-67
2022/07/20 03:16:26;;;;;;;9.10;7.97;;;16.80;99.90;;;;;;5012566;28;20349;-67
2022/07/20 03:18:53;;;;;;;8.07;6.63;;;16.80;99.90;;;;;;5010464;28;20084;-70
2022/07/20 03:21:21;;;;;;;7.43;6.82;;;16.80;99.90;;;;;;5013444;28;20049;-69
2022/07/20 03:23:48;;;;;;;11.15;8.48;;;16.80;99.90;;;;;;5009238;28;20941;-67
2022/07/20 03:26:15;;;;;;;7.43;6.70;;;16.80;99.90;;;;;;5013233;28;20100;-70
2022/07/20 03:28:42;;;;;;;7.35;6.65;;;16.90;99.90;;;;;;5006863;28;20040;-67
2022/07/20 03:31:09;;;;;;;8.90;8.00;;;16.90;99.90;;;;;;5013270;28;20115;-68
2022/07/20 03:33:37;;;;;;;9.63;7.75;;;17.00;99.90;;;;;;5006451;28;20030;-67
2022/07/20 03:36:04;;;;;;;7.18;6.57;;;17.00;99.90;;;;;;5012796;28;20076;-67
2022/07/20 03:38:31;;;;;;;10.05;8.25;;;17.00;99.90;;;;;;5011131;28;20487;-68
2022/07/20 03:41:01;;;;;;;6.65;6.05;;;17.10;99.90;;;;;;5008309;28;20029;-67
2022/07/20 03:43:28;;;;;;;8.02;7.28;;;17.10;99.90;;;;;;5012387;28;20043;-68
2022/07/20 03:45:55;;;;;;;7.57;6.85;;;17.10;99.90;;;;;;5006375;28;20046;-75
2022/07/20 03:48:22;;;;;;;7.82;6.68;;;17.10;99.90;;;;;;5008930;28;20046;-67
2022/07/20 03:50:49;;;;;;;7.90;7.10;;;17.20;99.90;;;;;;5005978;28;20076;-67
2022/07/20 03:53:16;;;;;;;8.52;6.38;;;17.20;99.90;;;;;;5006877;28;20124;-67
2022/07/20 03:55:44;;;;;;;7.85;6.03;;;17.20;99.90;;;;;;5004169;28;20034;-68
2022/07/20 03:58:11;;;;;;;6.47;5.88;;;17.30;99.90;;;;;;5012766;28;20065;-67
2022/07/20 04:00:38;;;;;;;7.45;6.82;;;17.30;99.90;;;;;;5012550;28;20145;-67
2022/07/20 04:03:05;;;;;;;10.63;6.15;;;17.30;99.90;;;;;;5009944;28;20046;-67
2022/07/20 04:05:31;;;;;;;8.00;7.25;;;17.40;99.90;;;;;;5012045;28;20749;-67
2022/07/20 04:07:58;;;;;;;7.47;6.68;;;17.40;99.90;;;;;;5011693;28;20033;-67
2022/07/20 04:10:25;;;;;;;7.00;6.40;;;17.40;99.90;;;;;;5012745;28;20096;-67
2022/07/20 04:12:52;;;;;;;7.00;6.40;;;17.50;99.90;;;;;;5006210;28;20049;-70
2022/07/20 04:15:19;;;;;;;10.65;7.70;;;17.50;99.90;;;;;;5012277;28;20103;-67
2022/07/20 04:17:46;;;;;;;7.75;6.47;;;17.50;99.90;;;;;;5011483;28;20038;-69
2022/07/20 04:20:13;;;;;;;6.82;6.22;;;17.60;99.90;;;;;;5011540;28;20042;-67
2022/07/20 04:22:40;;;;;;;8.25;5.97;;;17.60;99.90;;;;;;4997387;28;20330;-68
2022/07/20 04:25:07;;;;;;;8.13;7.43;;;17.60;99.90;;;;;;5010203;28;20104;-70
2022/07/20 04:27:34;;;;;;;7.55;6.85;;;17.70;99.90;;;;;;5012500;28;20104;-67
2022/07/20 04:30:01;;;;;;;7.38;6.65;;;17.70;99.90;;;;;;5011881;28;20121;-67
2022/07/20 04:32:28;;;;;;;7.60;6.22;;;17.70;99.90;;;;;;4998344;28;20393;-67
2022/07/20 04:34:55;;;;;;;8.48;7.68;;;17.80;99.90;;;;;;5009527;28;20476;-69
2022/07/20 04:37:22;;;;;;;7.35;6.75;;;17.90;99.90;;;;;;5001298;28;20511;-67
2022/07/20 04:39:49;;;;;;;8.32;7.60;;;17.90;99.90;;;;;;4998805;28;20065;-67
2022/07/20 04:42:16;;;;;;;9.02;7.85;;;17.90;99.90;;;;;;5012105;28;20046;-67
2022/07/20 04:44:43;;;;;;;7.45;6.75;;;18.00;99.90;;;;;;5008116;28;20057;-67
2022/07/20 04:47:10;;;;;;;8.20;6.47;;;18.00;99.90;;;;;;5000590;28;20034;-71
2022/07/20 04:49:37;;;;;;;8.23;7.53;;;18.00;99.90;;;;;;5006013;28;20042;-67
2022/07/20 04:52:04;;;;;;;8.10;6.78;;;18.10;99.90;;;;;;5002543;28;20058;-67
2022/07/20 04:54:39;;;;;;;6.82;6.22;;;18.10;99.90;;;;;;5007813;28;20113;-69
2022/07/20 04:57:06;;;;;;;10.93;7.60;;;18.20;99.90;;;;;;5011720;28;20041;-67
2022/07/20 04:59:33;;;;;;;9.55;7.90;;;18.20;99.90;;;;;;5011122;28;20061;-67
2022/07/20 05:02:00;;;;;;;6.10;5.60;;;18.20;99.90;;;;;;5011309;28;20108;-67
2022/07/20 05:04:27;;;;;;;7.30;6.65;;;18.30;99.90;;;;;;5009896;28;20034;-67
2022/07/20 05:06:54;;;;;;;7.03;6.22;;;18.30;99.90;;;;;;5011433;28;20104;-67
2022/07/20 05:09:21;;;;;;;7.93;7.05;;;18.30;99.90;;;;;;5009514;28;20041;-67
2022/07/20 05:11:48;;;;;;;9.50;7.40;;;18.40;99.90;;;;;;5005090;28;20096;-67
2022/07/20 05:14:15;;;;;;;11.68;6.60;;;18.40;99.90;;;;;;5005212;28;20037;-67
2022/07/20 05:16:42;;;;;;;7.85;6.03;;;18.40;99.90;;;;;;5011242;28;20065;-67
2022/07/20 05:19:11;;;;;;;8.18;7.47;;;18.40;99.90;;;;;;5008941;28;20054;-67
2022/07/20 05:21:40;;;;;;;7.90;7.03;;;18.40;99.90;;;;;;5001759;28;20081;-67
2022/07/20 05:24:07;;;;;;;11.15;6.20;;;18.50;99.90;;;;;;5007783;28;20104;-67
2022/07/20 05:26:34;;;;;;;7.97;6.85;;;18.60;99.90;;;;;;5005514;28;20042;-67
2022/07/20 05:29:01;;;;;;;6.78;5.97;;;18.60;99.90;;;;;;5008089;28;20145;-68
2022/07/20 05:31:28;;;;;;;7.18;6.47;;;18.70;99.90;;;;;;5012038;28;20103;-68
2022/07/20 05:33:55;;;;;;;7.30;6.70;;;18.70;99.90;;;;;;5003227;28;20046;-68
2022/07/20 05:36:22;;;;;;;7.32;6.63;;;18.80;99.90;;;;;;5005030;28;20050;-67
2022/07/20 05:38:49;;;;;;;7.45;6.10;;;18.90;99.90;;;;;;5009508;28;20050;-67
2022/07/20 05:41:17;;;;;;;7.68;5.93;;;18.90;99.90;;;;;;5006014;28;20030;-68
2022/07/20 05:43:44;;;;;;;11.48;7.15;;;19.00;99.90;;;;;;4998272;28;20046;-68
2022/07/20 05:46:11;;;;;;;6.93;5.75;;;19.00;99.90;;;;;;5005070;28;20530;-67
2022/07/20 05:48:38;;;;;;;7.30;6.47;;;19.10;99.90;;;;;;5002795;28;20116;-68
2022/07/20 05:51:05;;;;;;;7.07;6.20;;;19.20;99.90;;;;;;5009179;28;20124;-67
2022/07/20 05:53:32;;;;;;;7.68;6.05;;;19.20;99.90;;;;;;5003507;28;20049;-68
2022/07/20 05:55:58;;;;;;;6.75;6.25;;;19.30;99.90;;;;;;5004013;28;20112;-67
2022/07/20 05:58:26;;;;;;;7.15;6.32;;;19.40;99.90;;;;;;4997279;28;20096;-67
2022/07/20 06:00:52;;;;;;;6.47;5.97;;;19.40;99.90;;;;;;5009225;28;20530;-67
2022/07/20 06:03:19;;;;;;;6.40;5.82;;;19.50;99.90;;;;;;5003996;28;20435;-67
2022/07/20 06:05:46;;;;;;;7.75;6.13;;;19.60;99.90;;;;;;5009891;28;20134;-67
2022/07/20 06:08:13;;;;;;;6.53;5.65;;;19.70;99.90;;;;;;5001903;28;20042;-67
2022/07/20 06:10:40;;;;;;;6.03;5.43;;;19.80;99.90;;;;;;5009457;28;20465;-69
2022/07/20 06:13:07;;;;;;;6.13;5.53;;;19.90;99.90;;;;;;5010297;28;20427;-67
2022/07/20 06:15:36;;;;;;;7.65;6.75;;;19.90;99.90;;;;;;5002633;28;20038;-67
2022/07/20 06:18:03;;;;;;;6.57;5.95;;;20.10;99.90;;;;;;5013882;28;20433;-72
2022/07/20 06:20:30;;;;;;;6.38;5.32;;;20.20;99.90;;;;;;5010042;28;20034;-67
2022/07/20 06:22:58;;;;;;;6.70;6.10;;;20.30;99.90;;;;;;5013094;28;20148;-72
2022/07/20 06:25:26;;;;;;;8.32;5.57;;;20.30;99.90;;;;;;5010420;28;20045;-69
2022/07/20 06:27:53;;;;;;;5.30;4.70;;;20.50;99.90;;;;;;5014958;28;20111;-67
2022/07/20 06:30:20;;;;;;;8.57;5.15;;;20.50;99.90;;;;;;5013854;28;20410;-67
2022/07/20 06:32:47;;;;;;;9.05;6.45;;;20.60;99.90;;;;;;5014678;28;20049;-67
2022/07/20 06:35:14;;;;;;;6.43;5.60;;;20.60;99.90;;;;;;5012583;28;20054;-68
2022/07/20 06:37:41;;;;;;;5.70;5.20;;;20.70;99.90;;;;;;5012985;28;20068;-68
2022/07/20 06:40:09;;;;;;;5.65;5.00;;;20.80;99.90;;;;;;5012079;28;20479;-71
2022/07/20 06:42:36;;;;;;;7.35;5.50;;;20.90;99.90;;;;;;5014556;28;20053;-67
2022/07/20 06:45:04;;;;;;;5.15;4.65;;;21.00;99.90;;;;;;5013818;28;20042;-68
2022/07/20 06:47:31;;;;;;;7.65;5.55;;;21.10;99.90;;;;;;5013462;28;20048;-67
2022/07/20 06:49:58;;;;;;;5.63;5.05;;;21.20;99.90;;;;;;5009996;28;20379;-68
2022/07/20 06:52:31;;;;;;;5.47;4.85;;;21.30;99.90;;;;;;5013111;28;20045;-75
2022/07/20 06:54:58;;;;;;;6.38;5.18;;;21.40;99.90;;;;;;5006675;28;20049;-67
2022/07/20 06:57:25;;;;;;;5.72;5.13;;;21.40;99.90;;;;;;4997916;28;20084;-70
2022/07/20 06:59:52;;;;;;;5.65;4.60;;;21.50;99.90;;;;;;5005097;28;20111;-71
2022/07/20 07:02:19;;;;;;;6.53;5.45;;;21.70;99.90;;;;;;5009826;28;20443;-68
2022/07/20 07:04:48;;;;;;;4.97;4.57;;;21.80;99.90;;;;;;4999985;28;20045;-68
2022/07/20 07:07:15;;;;;;;6.68;5.47;;;21.80;99.90;;;;;;5000896;28;20775;-68
2022/07/20 07:09:41;;;;;;;7.25;5.28;;;21.80;99.90;;;;;;5004191;28;20431;-68
2022/07/20 07:12:09;;;;;;;5.20;4.70;;;21.90;99.90;;;;;;5010132;28;20034;-67
2022/07/20 07:14:36;;;;;;;6.38;5.78;;;22.00;99.90;;;;;;5009949;28;20041;-68
2022/07/20 07:17:03;;;;;;;5.88;5.32;;;22.10;99.90;;;;;;5008311;28;20122;-67
2022/07/20 07:19:31;;;;;;;5.47;4.97;;;22.10;99.90;;;;;;5009562;28;20125;-67
2022/07/20 07:21:57;;;;;;;6.95;6.07;;;22.20;99.90;;;;;;5007613;28;20067;-68
2022/07/20 07:24:24;;;;;;;5.40;4.90;;;22.30;99.90;;;;;;5005363;28;20085;-69
2022/07/20 07:26:51;;;;;;;6.78;4.72;;;22.40;99.90;;;;;;5006224;28;20042;-67
2022/07/20 07:29:21;;;;;;;7.85;4.72;;;22.50;99.90;;;;;;5001910;28;20049;-67
2022/07/20 07:31:48;;;;;;;5.57;4.78;;;22.50;99.90;;;;;;4995472;28;20093;-71
2022/07/20 07:34:15;;;;;;;6.15;5.55;;;22.60;99.90;;;;;;5003881;28;20050;-68
2022/07/20 07:36:42;;;;;;;6.68;5.05;;;22.70;99.90;;;;;;5005436;28;20070;-67
2022/07/20 07:39:13;;;;;;;5.47;4.93;;;22.80;99.90;;;;;;5011405;28;20531;-68
2022/07/20 07:41:40;;;;;;;6.25;4.85;;;22.90;99.90;;;;;;5002182;28;20804;-68
2022/07/20 07:44:07;;;;;;;5.63;5.07;;;22.90;99.90;;;;;;5002926;28;20097;-69
2022/07/20 07:46:34;;;;;;;7.20;4.78;;;23.00;99.90;;;;;;5002402;28;20508;-67
2022/07/20 07:49:01;;;;;;;7.43;5.35;;;23.20;99.90;;;;;;5008608;28;20108;-68
2022/07/20 07:51:28;;;;;;;6.40;4.60;;;23.30;99.90;;;;;;5011004;28;20050;-69
2022/07/20 07:53:55;;;;;;;5.40;4.90;;;23.30;99.90;;;;;;5004993;28;20093;-67
2022/07/20 07:56:22;;;;;;;4.90;4.18;;;23.40;99.90;;;;;;5010609;28;20104;-68
2022/07/20 07:58:49;;;;;;;6.57;4.15;;;23.50;99.90;;;;;;5012527;28;20042;-72
2022/07/20 08:01:36;;;;;;;4.05;3.65;;;23.60;99.90;;;;;;5004047;28;20044;-68
2022/07/20 08:04:04;;;;;;;4.90;4.50;;;23.60;99.90;;;;;;4996177;28;20108;-68
2022/07/20 08:06:32;;;;;;;5.13;4.38;;;23.60;99.90;;;;;;5000084;28;20050;-68
2022/07/20 08:08:59;;;;;;;6.88;4.35;;;23.80;99.90;;;;;;4999756;28;20045;-68
2022/07/20 08:11:29;;;;;;;4.13;3.73;;;23.90;99.90;;;;;;5002024;28;20050;-68
2022/07/20 08:13:56;;;;;;;5.28;4.78;;;24.00;99.90;;;;;;5005562;28;20030;-68
2022/07/20 08:16:23;;;;;;;4.32;4.00;;;24.00;99.90;;;;;;5005412;28;20313;-68
2022/07/20 08:18:50;;;;;;;5.03;4.13;;;24.10;99.90;;;;;;5009127;28;20042;-68
2022/07/20 08:21:18;;;;;;;4.43;4.03;;;24.20;99.90;;;;;;5005016;28;20105;-79
2022/07/20 08:23:44;;;;;;;5.15;3.85;;;24.20;99.90;;;;;;4996295;28;20407;-68
2022/07/20 08:26:12;;;;;;;4.63;3.90;;;24.30;99.90;;;;;;5008740;28;20136;-77
2022/07/20 08:28:40;;;;;;;5.22;4.65;;;24.40;99.90;;;;;;5007111;28;20050;-68
2022/07/20 08:31:07;;;;;;;4.93;4.47;;;24.40;99.90;;;;;;5011078;28;20069;-68
2022/07/20 08:33:34;;;;;;;7.85;5.00;;;24.60;99.90;;;;;;5008856;28;20065;-68
2022/07/20 08:36:01;;;;;;;6.43;5.22;;;24.60;99.90;;;;;;5001938;28;20123;-69
2022/07/20 08:38:28;;;;;;;6.10;4.78;;;24.80;99.90;;;;;;5008271;28;20065;-71
2022/07/20 08:40:57;;;;;;;4.82;4.32;;;24.80;99.90;;;;;;5006794;28;20049;-68
2022/07/20 08:43:24;;;;;;;6.50;5.28;;;24.80;99.90;;;;;;5010633;28;20034;-70
2022/07/20 08:45:51;;;;;;;6.70;5.47;;;25.00;99.90;;;;;;5010880;28;20423;-68
2022/07/20 08:48:18;;;;;;;7.50;4.70;;;25.00;99.90;;;;;;5005300;28;20100;-68
2022/07/20 08:50:47;;;;;;;6.70;5.82;;;24.90;99.90;;;;;;5008808;28;20025;-79
2022/07/20 08:53:14;;;;;;;6.75;6.07;;;24.60;99.90;;;;;;4999004;28;20043;-71
2022/07/20 08:55:42;;;;;;;9.73;7.07;;;24.20;99.90;;;;;;5010203;28;20072;-69
2022/07/20 08:58:10;;;;;;;7.82;7.05;;;23.70;99.90;;;;;;4998616;28;20065;-68
2022/07/20 09:00:39;;;;;;;8.35;7.20;;;23.30;99.90;;;;;;5003223;28;20368;-69
2022/07/20 09:03:08;;;;;;;9.90;8.23;;;23.10;99.90;;;;;;5011642;28;20119;-69
2022/07/20 09:05:38;;;;;;;7.63;6.87;;;22.90;99.90;;;;;;5004146;28;20552;-70
2022/07/20 09:08:09;;;;;;;8.52;6.72;;;22.80;99.90;;;;;;5008188;28;20274;-69
2022/07/20 09:10:41;;;;;;;8.52;6.78;;;22.60;99.90;;;;;;5000702;28;20061;-68
2022/07/20 09:13:17;;;;;;;7.10;6.30;;;22.60;99.90;;;;;;5001073;28;20475;-69
2022/07/20 09:15:50;;;;;;;9.20;7.53;;;22.60;99.90;;;;;;4998944;28;20038;-68
2022/07/20 09:18:28;;;;;;;7.53;6.82;;;22.60;99.90;;;;;;5011427;28;20045;-68
2022/07/20 09:21:05;;;;;;;10.57;6.60;;;22.70;99.90;;;;;;5001176;28;20125;-68
2022/07/20 09:23:56;;;;;;;7.32;6.35;;;22.80;99.90;;;;;;5010712;28;20038;-68
2022/07/20 09:26:24;;;;;;;8.07;6.47;;;23.00;99.90;;;;;;5006200;28;20050;-68
2022/07/20 09:28:54;;;;;;;7.22;6.53;;;23.20;99.90;;;;;;5004741;28;20056;-72
2022/07/20 09:31:39;;;;;;;7.40;6.25;;;23.10;99.90;;;;;;5011047;28;20050;-69
2022/07/20 09:34:08;;;;;;;7.68;6.60;;;23.20;99.90;;;;;;5005075;28;20356;-68
2022/07/20 09:36:40;;;;;;;8.20;7.30;;;23.20;99.90;;;;;;5008085;28;20038;-69
2022/07/20 09:39:16;;;;;;;6.43;5.80;;;23.30;99.90;;;;;;5004101;28;20044;-68
2022/07/20 09:41:45;;;;;;;7.78;6.97;;;23.40;99.90;;;;;;5005893;28;20122;-68
2022/07/20 09:44:32;;;;;;;10.95;7.18;;;23.40;99.90;;;;;;5008504;28;20038;-68
2022/07/20 09:47:11;;;;;;;7.32;6.32;;;23.20;99.90;;;;;;5010413;28;20175;-68
2022/07/20 09:49:40;;;;;;;8.50;7.00;;;23.10;99.90;;;;;;5011158;28;20067;-68
2022/07/20 09:52:08;;;;;;;7.68;6.15;;;22.90;99.90;;;;;;5004068;28;20073;-69
2022/07/20 09:54:55;;;;;;;9.48;6.93;;;23.00;99.90;;;;;;5000077;28;20048;-70
2022/07/20 09:57:23;;;;;;;8.10;6.22;;;22.90;99.90;;;;;;5004562;28;20034;-68
2022/07/20 09:59:51;;;;;;;7.28;5.78;;;22.70;99.90;;;;;;5008527;28;21225;-68
2022/07/20 10:02:22;;;;;;;10.00;7.13;;;22.70;99.90;;;;;;5008827;28;20045;-68
2022/07/20 10:04:52;;;;;;;12.23;6.57;;;22.60;99.90;;;;;;5010238;28;20046;-74
2022/07/20 10:07:19;;;;;;;7.80;7.00;;;22.80;99.90;;;;;;5009395;28;20078;-68
2022/07/20 10:09:47;;;;;;;9.63;6.53;;;22.80;99.90;;;;;;5010466;28;20045;-68
2022/07/20 10:12:14;;;;;;;9.80;6.90;;;22.90;99.90;;;;;;5009751;28;20049;-68
2022/07/20 10:14:44;;;;;;;10.70;6.38;;;23.00;99.90;;;;;;5001369;28;20129;-68
2022/07/20 10:17:11;;;;;;;9.05;6.95;;;23.10;99.90;;;;;;5010449;28;20062;-69
2022/07/20 10:19:46;;;;;;;9.60;6.35;;;23.20;99.90;;;;;;5011283;28;20076;-68
2022/07/20 10:22:14;;;;;;;9.00;6.95;;;23.20;99.90;;;;;;4996843;28;20189;-68
2022/07/20 10:24:46;;;;;;;15.13;7.78;;;23.20;99.90;;;;;;5005608;28;20105;-68
2022/07/20 10:27:15;;;;;;;9.05;7.05;;;23.20;99.90;;;;;;5007294;28;20072;-68
2022/07/20 10:29:46;;;;;;;8.20;6.30;;;23.20;99.90;;;;;;5001742;28;20046;-69
2022/07/20 10:32:17;;;;;;;;;;;23.30;99.90;;;;;;5008651;28;20421;-68
2022/07/20 10:34:48;;;;;;;10.65;6.15;;;23.30;99.90;;;;;;5010583;28;19949;-68
2022/07/20 10:37:35;;;;;;;8.73;5.68;;;23.40;99.90;;;;;;5007972;28;20064;-69
2022/07/20 10:40:17;;;;;;;7.75;5.47;;;23.50;99.90;;;;;;5009860;28;20175;-69
2022/07/20 10:42:46;;;;;;;9.63;5.70;;;23.60;99.90;;;;;;5004659;28;20050;-68
2022/07/20 10:45:16;;;;;;;6.70;5.57;;;23.80;99.90;;;;;;5010208;28;20038;-70
2022/07/20 10:47:44;;;;;;;8.20;5.10;;;24.10;99.90;;;;;;5000988;28;20133;-68
2022/07/20 10:50:20;;;;;;;11.32;6.13;;;24.10;99.90;;;;;;4997622;28;20049;-68
2022/07/20 10:52:49;;;;;;;6.30;5.05;;;24.20;99.90;;;;;;5009581;28;20045;-68
2022/07/20 10:55:34;;;;;;;6.90;5.50;;;24.30;99.90;;;;;;5009525;28;20384;-68
2022/07/20 10:58:09;;;;;;;5.15;4.65;;;24.30;99.90;;;;;;5008646;28;20081;-68
2022/07/20 11:00:37;;;;;;;12.00;6.38;;;24.50;99.90;;;;;;5008572;28;20041;-69
2022/07/20 11:03:10;;;;;;;7.03;5.45;;;24.60;99.90;;;;;;5001162;28;20073;-69
2022/07/20 11:05:38;;;;;;;9.63;4.97;;;24.60;99.90;;;;;;5007555;28;20065;-69
2022/07/20 11:08:08;;;;;;;7.55;5.90;;;24.60;99.90;;;;;;5009439;28;20038;-70
2022/07/20 11:10:36;;;;;;;7.90;4.93;;;24.70;99.90;;;;;;5001493;28;20373;-68
2022/07/20 11:13:09;;;;;;;6.38;4.97;;;24.80;99.90;;;;;;5012503;28;20121;-67
2022/07/20 11:15:50;;;;;;;5.95;4.55;;;24.80;99.90;;;;;;5002246;28;20049;-67
2022/07/20 11:18:23;;;;;;;8.57;5.20;;;25.00;99.90;;;;;;4999832;28;20038;-68
2022/07/20 11:20:52;;;;;;;5.63;5.05;;;25.20;99.90;;;;;;5011871;28;20496;-68
2022/07/20 11:23:21;;;;;;;4.32;3.95;;;25.30;99.90;;;;;;5012481;28;20034;-69
2022/07/20 11:25:54;;;;;;;4.60;3.85;;;25.50;99.90;;;;;;5004622;28;20074;-70
2022/07/20 11:28:28;;;;;;;5.38;4.78;;;25.60;99.90;;;;;;5009874;28;20064;-67
2022/07/20 11:30:56;;;;;;;9.25;5.22;;;25.70;99.90;;;;;;5000900;28;20129;-70
2022/07/20 11:33:36;;;;;;;8.77;4.75;;;25.70;99.90;;;;;;5013084;28;20063;-67
2022/07/20 11:36:15;;;;;;;5.10;3.33;;;25.80;99.90;;;;;;5011592;28;20034;-67
2022/07/20 11:38:45;;;;;;;4.03;3.63;;;26.10;99.90;;;;;;5005838;28;20033;-67
2022/07/20 11:41:15;;;;;;;5.45;4.05;;;26.30;99.90;;;;;;5011691;28;20140;-67
2022/07/20 11:43:48;;;;;;;4.30;3.53;;;26.40;99.90;;;;;;5011351;28;20040;-68
2022/07/20 11:46:24;;;;;;;4.88;4.35;;;26.70;99.90;;;;;;5002811;28;20080;-67
2022/07/20 11:48:59;;;;;;;7.30;3.60;;;26.80;99.90;;;;;;5012795;28;20092;-67
2022/07/20 11:52:03;;;;;;;7.57;4.72;;;26.70;99.90;;;;;;5002107;28;20057;-69
2022/07/20 11:54:35;;;;;;;6.15;3.47;;;26.40;99.90;;;;;;4997682;28;20384;-69
2022/07/20 11:57:04;;;;;;;3.72;3.38;;;26.40;99.90;;;;;;5008506;28;20053;-67
2022/07/20 11:59:31;;;;;;;4.18;3.78;;;26.70;99.90;;;;;;5012060;28;20084;-67
2022/07/20 12:02:00;;;;;;;8.60;4.35;;;27.00;99.90;;;;;;5010516;28;20111;-68
2022/07/20 12:04:33;;;;;;;3.85;3.42;;;27.30;99.90;;;;;;5001441;28;20184;-67
2022/07/20 12:07:01;;;;;;;4.43;2.92;;;27.40;99.90;;;;;;5004316;28;20040;-68
2022/07/20 12:09:35;;;;;;;3.47;3.17;;;27.70;99.90;;;;;;5011891;28;20033;-67
2022/07/20 12:12:02;;;;;;;4.55;3.75;;;27.80;99.90;;;;;;4995808;28;20050;-67
2022/07/20 12:14:30;;;;;;;5.10;4.03;;;27.60;99.90;;;;;;5009556;28;20148;-68
2022/07/20 12:17:23;;;;;;;5.70;3.30;;;27.50;99.90;;;;;;4996349;28;20059;-67
2022/07/20 12:19:53;;;;;;;4.47;3.80;;;27.50;99.90;;;;;;4993750;28;20519;-68
2022/07/20 12:22:24;;;;;;;7.13;4.20;;;27.70;99.90;;;;;;5007498;28;20073;-70
2022/07/20 12:24:59;;;;;;;4.93;4.22;;;27.40;99.90;;;;;;5002377;28;20042;-68
2022/07/20 12:27:33;;;;;;;4.82;4.43;;;27.20;99.90;;;;;;5005631;28;20043;-68
2022/07/20 12:30:21;;;;;;;6.28;4.93;;;27.10;99.90;;;;;;5010387;28;20041;-68
2022/07/20 12:33:02;;;;;;;4.28;3.85;;;26.80;99.90;;;;;;5005616;28;20065;-69
2022/07/20 12:35:29;;;;;;;7.13;4.07;;;27.10;99.90;;;;;;5010599;28;20125;-68
2022/07/20 12:37:57;;;;;;;7.00;4.72;;;27.10;99.90;;;;;;5005055;28;20429;-68
2022/07/20 12:40:56;;;;;;;3.63;3.30;;;26.90;99.90;;;;;;5010964;28;20046;-68
2022/07/20 12:43:40;;;;;;;7.77;3.63;;;27.10;99.90;;;;;;4998546;28;20100;-68
2022/07/20 12:46:13;;;;;;;4.28;3.65;;;27.10;99.90;;;;;;5008636;28;20042;-69
2022/07/20 12:48:47;;;;;;;5.28;4.18;;;27.20;99.90;;;;;;5008439;28;20033;-68
2022/07/20 12:51:15;;;;;;;5.47;3.58;;;27.50;99.90;;;;;;5011680;28;20358;-73
2022/07/20 12:53:44;;;;;;;4.43;3.53;;;27.90;99.90;;;;;;5008490;28;20045;-68
2022/07/20 12:56:14;;;;;;;6.15;4.35;;;28.00;99.90;;;;;;5011158;28;20336;-68
2022/07/20 12:58:41;;;;;;;4.05;3.47;;;28.10;99.90;;;;;;5008338;28;20492;-68